Time;durP1;ratioP1;P1;durP2;ratioP2;P2;SDS_P1;SDS_P2;PMS_P1;PMS_P2;Temp;Humidity;BMP_temperature;BMP_pressure;BME280_temperature;BME280_humidity;BME280_pressure;Samples;Min_cycle;Max_cycle;Signal;HPM_P1;HPM_P2
2024/01/29 00:00:09;;;;;;;4.15;2.50;;;9.80;76.60;;;;;;10410842;28;20239;-62
2024/01/29 00:05:12;;;;;;;3.15;2.03;;;9.80;77.00;;;;;;10415494;28;20233;-62
2024/01/29 00:10:16;;;;;;;1.75;1.42;;;9.80;77.90;;;;;;10411685;28;20201;-62
2024/01/29 00:15:21;;;;;;;2.37;1.90;;;9.80;77.50;;;;;;10418189;28;20296;-62
2024/01/29 00:20:25;;;;;;;2.70;1.70;;;9.80;77.60;;;;;;10409501;28;20208;-63
2024/01/29 00:25:28;;;;;;;1.98;1.80;;;9.80;77.50;;;;;;10420113;28;20290;-62
2024/01/29 00:30:33;;;;;;;2.15;1.35;;;9.80;76.90;;;;;;10416967;28;20204;-63
2024/01/29 00:35:37;;;;;;;2.65;1.60;;;9.80;77.30;;;;;;10413576;28;20219;-64
2024/01/29 00:40:41;;;;;;;3.28;1.77;;;9.90;77.30;;;;;;10414365;28;20254;-63
2024/01/29 00:45:46;;;;;;;2.43;1.90;;;9.90;75.60;;;;;;10415540;28;20227;-63
2024/01/29 00:50:50;;;;;;;3.53;1.60;;;9.90;75.70;;;;;;10419442;28;20818;-63
2024/01/29 00:55:53;;;;;;;2.83;2.00;;;9.80;75.90;;;;;;10423073;28;20270;-61
2024/01/29 01:00:58;;;;;;;1.77;1.58;;;9.90;76.10;;;;;;10413133;28;20200;-66
2024/01/29 01:06:02;;;;;;;2.08;1.65;;;9.80;74.40;;;;;;10419831;28;20639;-65
2024/01/29 01:11:07;;;;;;;3.00;1.93;;;9.90;75.20;;;;;;10411813;28;20204;-64
2024/01/29 01:16:12;;;;;;;2.75;1.80;;;9.80;77.40;;;;;;10413316;28;20223;-65
2024/01/29 01:21:16;;;;;;;2.42;1.70;;;9.80;76.20;;;;;;10418377;28;20667;-66
2024/01/29 01:26:19;;;;;;;2.37;1.80;;;9.80;76.60;;;;;;10414650;28;20286;-66
2024/01/29 01:31:25;;;;;;;1.90;1.70;;;9.80;76.60;;;;;;10418979;28;20204;-64
2024/01/29 01:36:28;;;;;;;2.13;1.92;;;9.70;76.20;;;;;;10417100;28;20223;-65
2024/01/29 01:41:32;;;;;;;2.23;2.03;;;9.70;76.80;;;;;;10413656;28;20232;-65
2024/01/29 01:46:37;;;;;;;2.03;1.67;;;9.70;77.10;;;;;;10410446;28;20220;-65
2024/01/29 01:51:41;;;;;;;2.30;1.63;;;9.70;78.60;;;;;;10411798;28;20196;-66
2024/01/29 01:56:45;;;;;;;1.85;1.60;;;9.60;77.50;;;;;;10405821;28;20230;-65
2024/01/29 02:01:50;;;;;;;2.50;1.60;;;9.60;79.40;;;;;;10408498;28;20266;-64
2024/01/29 02:06:54;;;;;;;2.90;1.80;;;9.60;77.70;;;;;;10413267;28;20227;-65
2024/01/29 02:11:58;;;;;;;3.53;1.77;;;9.50;76.90;;;;;;10404119;28;20204;-65
2024/01/29 02:17:04;;;;;;;3.58;2.00;;;9.50;77.10;;;;;;10408357;28;20208;-66
2024/01/29 02:22:07;;;;;;;2.30;1.77;;;9.40;76.70;;;;;;10409039;28;20263;-65
2024/01/29 02:27:12;;;;;;;3.10;2.17;;;9.40;77.50;;;;;;10414615;28;20200;-64
2024/01/29 02:32:16;;;;;;;2.60;1.70;;;9.30;76.60;;;;;;10406839;28;20278;-65
2024/01/29 02:37:20;;;;;;;3.60;1.90;;;9.30;76.20;;;;;;10414464;28;20236;-65
2024/01/29 02:42:25;;;;;;;2.43;1.90;;;9.20;75.20;;;;;;10408354;28;20314;-64
2024/01/29 02:47:28;;;;;;;4.23;2.17;;;9.20;75.50;;;;;;10411689;28;20558;-66
2024/01/29 02:52:32;;;;;;;4.35;1.98;;;9.10;74.70;;;;;;10415955;28;20224;-66
2024/01/29 02:57:37;;;;;;;2.40;1.90;;;9.10;75.00;;;;;;10410568;28;20204;-65
2024/01/29 03:02:41;;;;;;;3.67;2.10;;;9.00;74.90;;;;;;10402120;28;20224;-64
2024/01/29 03:07:44;;;;;;;3.38;2.15;;;9.00;76.40;;;;;;10402484;28;20200;-65
2024/01/29 03:12:49;;;;;;;2.80;2.33;;;9.00;76.80;;;;;;10407187;28;20228;-65
2024/01/29 03:17:53;;;;;;;3.00;2.47;;;9.00;77.10;;;;;;10404723;28;20219;-66
2024/01/29 03:22:56;;;;;;;2.70;2.07;;;8.90;77.60;;;;;;10398237;28;20256;-65
2024/01/29 03:28:02;;;;;;;3.30;2.17;;;8.90;75.60;;;;;;10404551;28;20273;-65
2024/01/29 03:33:06;;;;;;;2.33;2.10;;;8.90;77.40;;;;;;10404964;28;20240;-65
2024/01/29 03:38:10;;;;;;;3.23;2.40;;;8.90;75.20;;;;;;10403473;28;20752;-65
2024/01/29 03:43:14;;;;;;;4.68;2.38;;;8.90;76.00;;;;;;10403970;28;20248;-65
2024/01/29 03:48:18;;;;;;;4.13;1.92;;;8.80;74.80;;;;;;10407159;28;20250;-64
2024/01/29 03:53:22;;;;;;;2.90;2.03;;;8.80;74.80;;;;;;10372798;28;20253;-65
2024/01/29 03:58:27;;;;;;;4.33;2.60;;;8.80;74.20;;;;;;10335121;28;20201;-64
2024/01/29 04:03:31;;;;;;;3.80;2.67;;;8.70;75.10;;;;;;10341097;28;20253;-64
2024/01/29 04:08:34;;;;;;;5.83;3.40;;;8.70;75.00;;;;;;10335985;28;20229;-64
2024/01/29 04:13:40;;;;;;;5.73;3.90;;;8.70;76.40;;;;;;10333138;28;20582;-62
2024/01/29 04:18:44;;;;;;;5.23;3.40;;;8.70;75.60;;;;;;10335323;28;20277;-64
2024/01/29 04:23:47;;;;;;;5.95;3.08;;;8.70;77.80;;;;;;10334171;28;20253;-65
2024/01/29 04:28:52;;;;;;;7.13;3.50;;;8.70;78.00;;;;;;10334933;28;20639;-64
2024/01/29 04:33:56;;;;;;;4.73;2.93;;;8.70;80.80;;;;;;10335456;28;20252;-63
2024/01/29 04:39:00;;;;;;;5.97;3.07;;;8.70;80.80;;;;;;10332096;28;20220;-64
2024/01/29 04:44:05;;;;;;;3.47;2.77;;;8.70;78.90;;;;;;10328796;28;21087;-64
2024/01/29 04:49:08;;;;;;;5.30;2.97;;;8.70;77.50;;;;;;10330848;28;20233;-64
2024/01/29 04:54:12;;;;;;;3.05;2.03;;;8.70;76.70;;;;;;10329884;28;20699;-63
2024/01/29 04:59:17;;;;;;;2.57;2.23;;;8.60;75.50;;;;;;10330196;28;20634;-64
2024/01/29 05:04:21;;;;;;;3.70;2.30;;;8.60;76.40;;;;;;10332920;28;20332;-66
2024/01/29 05:09:25;;;;;;;2.90;2.00;;;8.50;75.30;;;;;;10330479;28;20253;-66
2024/01/29 05:14:30;;;;;;;4.50;2.27;;;8.50;75.80;;;;;;10329482;28;20217;-65
2024/01/29 05:19:33;;;;;;;5.90;1.90;;;8.50;74.70;;;;;;10326214;28;20673;-64
2024/01/29 05:24:38;;;;;;;3.67;2.27;;;8.40;74.60;;;;;;10334768;28;20253;-64
2024/01/29 05:29:43;;;;;;;3.70;2.53;;;8.30;75.30;;;;;;10329359;28;20288;-62
2024/01/29 05:34:46;;;;;;;3.33;2.23;;;8.20;74.90;;;;;;10327777;28;20213;-64
2024/01/29 05:39:50;;;;;;;2.80;2.37;;;8.20;74.50;;;;;;10329202;28;20210;-64
2024/01/29 05:44:55;;;;;;;5.10;2.77;;;8.10;74.50;;;;;;10329212;28;20273;-63
2024/01/29 05:50:00;;;;;;;4.30;2.37;;;8.10;74.80;;;;;;10329313;28;20337;-64
2024/01/29 05:55:04;;;;;;;5.67;2.90;;;8.00;74.70;;;;;;10328160;28;20248;-63
2024/01/29 06:00:10;;;;;;;5.47;2.70;;;7.90;74.80;;;;;;10326746;28;20248;-63
2024/01/29 06:05:14;;;;;;;5.27;2.50;;;7.80;74.70;;;;;;10325749;28;20643;-63
2024/01/29 06:10:18;;;;;;;3.13;2.17;;;7.80;74.80;;;;;;10330573;28;20681;-63
2024/01/29 06:15:23;;;;;;;5.67;3.10;;;7.70;74.70;;;;;;10329458;28;20337;-64
2024/01/29 06:20:27;;;;;;;3.43;2.77;;;7.70;74.90;;;;;;10336894;28;20205;-63
2024/01/29 06:25:30;;;;;;;4.37;3.00;;;7.60;74.90;;;;;;10324839;28;20304;-63
2024/01/29 06:30:35;;;;;;;5.93;3.40;;;7.50;75.60;;;;;;10327295;28;20198;-62
2024/01/29 06:35:39;;;;;;;6.03;3.07;;;7.50;75.10;;;;;;10323535;28;20241;-63
2024/01/29 06:40:43;;;;;;;7.33;4.93;;;7.50;75.10;;;;;;10336267;28;20266;-62
2024/01/29 06:45:48;;;;;;;7.33;4.37;;;7.50;75.00;;;;;;10323521;28;20264;-63
2024/01/29 06:50:51;;;;;;;5.77;4.20;;;7.50;75.20;;;;;;10332464;28;20215;-63
2024/01/29 06:55:59;;;;;;;8.63;4.30;;;7.40;75.10;;;;;;10322722;28;20766;-62
2024/01/29 07:01:04;;;;;;;9.77;5.30;;;7.30;75.30;;;;;;10331936;28;20291;-63
2024/01/29 07:06:08;;;;;;;7.27;4.80;;;7.30;75.50;;;;;;10325904;28;20268;-64
2024/01/29 07:11:15;;;;;;;8.47;4.43;;;7.30;75.40;;;;;;10329456;28;20294;-64
2024/01/29 07:16:20;;;;;;;7.43;3.63;;;7.20;75.50;;;;;;10323119;28;20221;-64
2024/01/29 07:21:23;;;;;;;6.73;4.33;;;7.20;75.60;;;;;;10328586;28;20768;-63
2024/01/29 07:26:27;;;;;;;7.60;4.43;;;7.20;75.70;;;;;;10330368;28;20272;-63
2024/01/29 07:31:32;;;;;;;7.13;4.30;;;7.20;75.70;;;;;;10334357;28;20681;-63
2024/01/29 07:36:40;;;;;;;5.70;4.30;;;7.20;75.80;;;;;;10332005;28;20250;-62
2024/01/29 07:41:44;;;;;;;6.33;4.53;;;7.20;75.80;;;;;;10330548;28;20444;-67
2024/01/29 07:46:49;;;;;;;6.70;4.20;;;7.30;76.10;;;;;;10334825;28;20308;-65
2024/01/29 07:51:53;;;;;;;4.77;3.20;;;7.20;76.10;;;;;;10340059;28;20566;-64
2024/01/29 07:56:57;;;;;;;7.57;3.80;;;7.30;76.10;;;;;;10330183;28;20315;-66
2024/01/29 08:02:02;;;;;;;5.80;3.50;;;7.30;76.80;;;;;;10333395;28;20689;-65
2024/01/29 08:07:06;;;;;;;6.93;3.50;;;7.30;76.00;;;;;;10333018;28;20779;-67
2024/01/29 08:12:10;;;;;;;5.17;3.63;;;7.30;76.30;;;;;;10328819;28;20370;-67
2024/01/29 08:17:15;;;;;;;4.37;3.40;;;7.30;76.40;;;;;;10330339;28;20206;-64
2024/01/29 08:22:18;;;;;;;4.90;4.10;;;7.30;76.90;;;;;;10330809;28;20229;-65
2024/01/29 08:27:22;;;;;;;8.00;4.57;;;7.40;77.00;;;;;;10327112;28;20264;-65
2024/01/29 08:32:27;;;;;;;8.23;4.97;;;7.50;77.70;;;;;;10331195;28;20225;-64
2024/01/29 08:37:32;;;;;;;10.63;5.10;;;7.60;78.50;;;;;;10335869;28;20616;-66
2024/01/29 08:42:36;;;;;;;6.33;4.20;;;7.70;79.30;;;;;;10328282;28;20226;-66
2024/01/29 08:47:41;;;;;;;6.07;4.47;;;7.80;77.80;;;;;;10327992;28;20776;-64
2024/01/29 08:52:45;;;;;;;6.83;4.47;;;7.90;79.10;;;;;;10327064;28;20252;-65
2024/01/29 08:57:48;;;;;;;6.43;5.33;;;8.00;78.20;;;;;;10327484;28;20244;-65
2024/01/29 09:02:53;;;;;;;6.20;5.40;;;8.10;78.30;;;;;;10327971;28;20336;-64
2024/01/29 09:07:57;;;;;;;5.10;4.10;;;8.30;78.90;;;;;;10325223;28;20314;-66
2024/01/29 09:13:08;;;;;;;5.30;3.60;;;8.40;78.80;;;;;;10327988;28;20225;-65
2024/01/29 09:18:14;;;;;;;7.07;4.00;;;8.50;78.80;;;;;;10327960;28;20201;-65
2024/01/29 09:23:18;;;;;;;5.70;3.40;;;8.60;78.00;;;;;;10290175;28;1154019;-66
2024/01/29 09:28:22;;;;;;;3.70;3.37;;;8.70;78.50;;;;;;10328790;28;20685;-64
2024/01/29 09:33:27;;;;;;;4.67;3.20;;;8.80;78.10;;;;;;10330022;28;20249;-65
2024/01/29 09:38:31;;;;;;;4.53;3.20;;;8.90;77.70;;;;;;10369428;28;20649;-66
2024/01/29 09:43:36;;;;;;;4.97;3.70;;;9.00;77.80;;;;;;10345018;28;20224;-66
2024/01/29 09:48:42;;;;;;;3.57;3.07;;;9.10;77.60;;;;;;10333191;28;20700;-67
2024/01/29 09:53:50;;;;;;;5.17;3.50;;;9.20;78.20;;;;;;10329268;28;20272;-65
2024/01/29 09:58:53;;;;;;;3.93;3.43;;;9.30;77.50;;;;;;10329189;28;20731;-63
2024/01/29 10:04:06;;;;;;;4.00;3.40;;;9.40;78.10;;;;;;10328556;28;20280;-64
2024/01/29 10:09:11;;;;;;;4.15;3.30;;;9.50;77.50;;;;;;10328752;28;20815;-68
2024/01/29 10:14:16;;;;;;;3.60;3.30;;;9.60;77.00;;;;;;10337552;28;20276;-65
2024/01/29 10:19:21;;;;;;;4.10;3.13;;;9.70;77.30;;;;;;10332000;28;20201;-64
2024/01/29 10:24:25;;;;;;;4.22;3.50;;;9.90;76.80;;;;;;10328393;28;20237;-63
2024/01/29 10:29:32;;;;;;;4.43;3.97;;;10.00;76.80;;;;;;10348850;28;20239;-65
2024/01/29 10:34:40;;;;;;;6.95;3.78;;;10.10;76.00;;;;;;10348092;28;20772;-64
2024/01/29 10:39:44;;;;;;;6.25;4.28;;;10.20;75.50;;;;;;10328091;28;20202;-65
2024/01/29 10:45:00;;;;;;;5.25;4.75;;;10.30;75.50;;;;;;10330541;28;20642;-65
2024/01/29 10:50:08;;;;;;;9.57;6.53;;;10.40;75.90;;;;;;10325708;28;20205;-65
2024/01/29 10:55:13;;;;;;;7.93;4.70;;;10.50;76.40;;;;;;10324825;28;20276;-66
2024/01/29 11:00:18;;;;;;;8.05;5.35;;;10.60;76.10;;;;;;10324009;28;20225;-66
2024/01/29 11:05:24;;;;;;;5.97;4.28;;;10.70;76.10;;;;;;10327864;28;20221;-66
2024/01/29 11:10:30;;;;;;;7.93;4.40;;;10.80;75.50;;;;;;10317290;28;21145;-65
2024/01/29 11:15:34;;;;;;;9.55;6.43;;;10.90;75.60;;;;;;10323119;28;20276;-65
2024/01/29 11:20:39;;;;;;;8.32;4.30;;;11.00;75.50;;;;;;10325431;28;20225;-66
2024/01/29 11:25:43;;;;;;;7.68;4.57;;;11.10;75.60;;;;;;10319224;28;20252;-65
2024/01/29 11:30:49;;;;;;;9.18;5.75;;;11.30;75.90;;;;;;10318898;28;20203;-65
2024/01/29 11:35:56;;;;;;;5.38;4.50;;;11.40;75.80;;;;;;10326703;28;20313;-65
2024/01/29 11:41:02;;;;;;;12.75;7.57;;;11.60;76.10;;;;;;10325636;28;20197;-65
2024/01/29 11:46:07;;;;;;;3.60;3.30;;;11.70;76.30;;;;;;10327402;28;20265;-64
2024/01/29 11:51:12;;;;;;;4.57;3.50;;;11.90;76.40;;;;;;10322562;28;20206;-64
2024/01/29 11:56:15;;;;;;;8.02;3.97;;;11.90;76.20;;;;;;10321102;28;21722;-65
2024/01/29 12:01:19;;;;;;;4.90;3.30;;;12.10;77.10;;;;;;10323537;28;20577;-64
2024/01/29 12:06:24;;;;;;;5.18;3.63;;;12.30;75.90;;;;;;10325244;28;20772;-63
2024/01/29 12:11:30;;;;;;;3.97;3.58;;;12.40;75.90;;;;;;10334761;28;20613;-65
2024/01/29 12:16:34;;;;;;;5.03;3.83;;;12.50;75.80;;;;;;10337971;28;20263;-65
2024/01/29 12:21:41;;;;;;;4.45;3.70;;;12.60;75.60;;;;;;10334980;28;20271;-65
2024/01/29 12:26:46;;;;;;;5.43;3.58;;;12.80;75.70;;;;;;10335094;28;20221;-63
2024/01/29 12:31:50;;;;;;;4.65;3.35;;;13.00;76.30;;;;;;10334292;28;20206;-64
2024/01/29 12:36:57;;;;;;;4.30;3.78;;;13.10;75.80;;;;;;10340435;28;20189;-66
2024/01/29 12:42:01;;;;;;;4.88;3.70;;;13.30;76.50;;;;;;10336990;28;20866;-64
2024/01/29 12:47:12;;;;;;;5.80;3.97;;;13.40;75.30;;;;;;10327856;28;20698;-64
2024/01/29 12:52:17;;;;;;;4.75;3.60;;;13.60;75.30;;;;;;10331358;28;20590;-62
2024/01/29 12:57:20;;;;;;;4.07;3.67;;;13.70;75.60;;;;;;10335283;28;20610;-65
2024/01/29 13:02:24;;;;;;;6.60;3.70;;;13.70;75.70;;;;;;10329681;28;20259;-65
2024/01/29 13:07:29;;;;;;;8.05;4.45;;;13.80;75.30;;;;;;10330207;28;20279;-66
2024/01/29 13:12:33;;;;;;;9.02;4.05;;;13.80;75.60;;;;;;10328125;28;20647;-64
2024/01/29 13:17:36;;;;;;;5.22;3.97;;;13.80;75.70;;;;;;10328080;28;20678;-65
2024/01/29 13:22:42;;;;;;;4.80;3.92;;;13.80;75.40;;;;;;10336765;28;20280;-65
2024/01/29 13:27:46;;;;;;;5.45;3.92;;;13.80;76.10;;;;;;10328432;28;20833;-64
2024/01/29 13:32:49;;;;;;;5.25;3.70;;;13.80;75.70;;;;;;10329899;28;20225;-65
2024/01/29 13:37:54;;;;;;;4.65;3.60;;;13.80;77.20;;;;;;10337415;28;20738;-65
2024/01/29 13:42:58;;;;;;;6.63;3.72;;;13.80;77.40;;;;;;10331984;28;20689;-64
2024/01/29 13:48:02;;;;;;;6.38;3.78;;;13.70;76.30;;;;;;10331314;28;20572;-64
2024/01/29 13:53:07;;;;;;;5.90;3.72;;;13.70;77.10;;;;;;10330087;28;20217;-64
2024/01/29 13:58:11;;;;;;;4.10;3.60;;;13.70;76.90;;;;;;10327045;28;20202;-64
2024/01/29 14:03:15;;;;;;;5.00;3.90;;;13.70;76.90;;;;;;10328195;28;20297;-64
2024/01/29 14:08:20;;;;;;;5.20;4.22;;;13.70;77.30;;;;;;10333085;28;20312;-66
2024/01/29 14:13:24;;;;;;;9.82;4.47;;;13.70;77.60;;;;;;10331351;28;20268;-65
2024/01/29 14:18:27;;;;;;;7.07;4.18;;;13.60;77.60;;;;;;10332078;28;20205;-67
2024/01/29 14:23:33;;;;;;;4.88;4.00;;;13.60;77.70;;;;;;10326067;28;20229;-64
2024/01/29 14:28:37;;;;;;;5.68;3.90;;;13.60;78.10;;;;;;10325954;28;20268;-67
2024/01/29 14:33:41;;;;;;;4.65;4.18;;;13.50;78.10;;;;;;10325885;28;20268;-69
2024/01/29 14:38:47;;;;;;;6.30;3.97;;;13.50;77.80;;;;;;10334370;28;20202;-69
2024/01/29 14:43:51;;;;;;;6.38;4.18;;;13.40;78.40;;;;;;10323442;28;20632;-69
2024/01/29 14:48:55;;;;;;;8.13;4.38;;;13.40;78.60;;;;;;10326392;28;20217;-69
2024/01/29 14:54:00;;;;;;;6.05;4.25;;;13.30;78.40;;;;;;10327466;28;20767;-69
2024/01/29 14:59:03;;;;;;;5.05;3.45;;;13.30;78.40;;;;;;10329723;28;20201;-70
2024/01/29 15:04:11;;;;;;;4.70;3.60;;;13.20;78.50;;;;;;10328063;28;20581;-68
2024/01/29 15:09:17;;;;;;;4.35;3.60;;;13.20;79.20;;;;;;10330564;28;20276;-69
2024/01/29 15:14:21;;;;;;;7.67;5.20;;;13.10;79.00;;;;;;10327842;28;20570;-68
2024/01/29 15:19:25;;;;;;;5.07;4.13;;;13.10;79.40;;;;;;10329253;28;20751;-67
2024/01/29 15:24:31;;;;;;;8.63;4.63;;;13.10;79.30;;;;;;10330453;28;20233;-67
2024/01/29 15:29:34;;;;;;;7.38;5.13;;;13.00;79.10;;;;;;10330132;28;20268;-67
2024/01/29 15:34:40;;;;;;;7.47;4.82;;;12.90;79.20;;;;;;10329196;28;20268;-66
2024/01/29 15:39:46;;;;;;;6.53;4.95;;;12.80;79.40;;;;;;10331295;28;20193;-65
2024/01/29 15:44:49;;;;;;;5.30;4.53;;;12.70;79.60;;;;;;10337718;28;20299;-66
2024/01/29 15:49:53;;;;;;;8.80;4.97;;;12.50;79.50;;;;;;10334781;28;20241;-67
2024/01/29 15:54:59;;;;;;;8.32;5.00;;;12.50;79.80;;;;;;10334471;28;20756;-66
2024/01/29 16:00:04;;;;;;;8.77;5.10;;;12.40;79.90;;;;;;10333182;28;20673;-69
2024/01/29 16:05:08;;;;;;;9.57;4.90;;;12.30;79.90;;;;;;10333364;28;20236;-68
2024/01/29 16:10:13;;;;;;;7.85;5.28;;;12.20;80.00;;;;;;10339301;28;20221;-69
2024/01/29 16:15:17;;;;;;;8.20;5.38;;;12.10;80.10;;;;;;10338777;28;20217;-69
2024/01/29 16:20:21;;;;;;;9.88;5.78;;;12.00;81.00;;;;;;10336776;28;20260;-67
2024/01/29 16:25:26;;;;;;;9.23;5.28;;;11.90;80.30;;;;;;10340650;28;20229;-68
2024/01/29 16:30:30;;;;;;;7.80;5.32;;;11.80;80.20;;;;;;10337108;28;20723;-67
2024/01/29 16:35:34;;;;;;;11.55;6.47;;;11.80;80.30;;;;;;10332608;28;20696;-67
2024/01/29 16:40:39;;;;;;;9.13;6.10;;;11.70;80.20;;;;;;10341111;28;20197;-67
2024/01/29 16:45:43;;;;;;;8.75;5.75;;;11.60;80.20;;;;;;10337822;28;20229;-67
2024/01/29 16:50:47;;;;;;;7.93;5.72;;;11.60;80.30;;;;;;10340512;28;20261;-69
2024/01/29 16:55:52;;;;;;;8.23;5.80;;;11.50;80.20;;;;;;10330750;28;20288;-67
2024/01/29 17:00:56;;;;;;;9.88;5.88;;;11.40;80.50;;;;;;10333639;28;20759;-68
2024/01/29 17:06:01;;;;;;;9.93;5.82;;;11.40;80.40;;;;;;10331996;28;20257;-67
2024/01/29 17:11:09;;;;;;;15.57;6.05;;;11.30;80.40;;;;;;10330745;28;20289;-68
2024/01/29 17:16:12;;;;;;;7.45;5.80;;;11.20;80.40;;;;;;10325689;28;20280;-67
2024/01/29 17:21:16;;;;;;;8.57;5.88;;;11.20;80.70;;;;;;10330638;28;20249;-67
2024/01/29 17:26:21;;;;;;;7.07;5.75;;;11.10;80.60;;;;;;10328932;28;20288;-68
2024/01/29 17:31:25;;;;;;;6.57;5.88;;;11.00;80.70;;;;;;10333090;28;20257;-68
2024/01/29 17:36:29;;;;;;;8.82;6.40;;;10.90;80.70;;;;;;10324972;28;20327;-67
2024/01/29 17:41:33;;;;;;;14.63;8.85;;;10.90;80.70;;;;;;10324416;28;20759;-69
2024/01/29 17:46:37;;;;;;;10.55;8.25;;;10.90;80.80;;;;;;10329793;28;20221;-69
2024/01/29 17:51:42;;;;;;;11.23;7.50;;;10.80;80.80;;;;;;10326979;28;20320;-68
2024/01/29 17:56:47;;;;;;;9.70;7.90;;;10.80;80.80;;;;;;10328409;28;20283;-68
2024/01/29 18:02:45;;;;;;;9.30;7.65;;;10.70;80.40;;;;;;10487750;27;21049;-65
2024/01/29 18:07:49;;;;;;;9.20;7.05;;;10.70;81.30;;;;;;10451313;28;20291;-65
2024/01/29 18:12:52;;;;;;;10.63;7.88;;;10.70;81.10;;;;;;10451887;28;20219;-65
2024/01/29 18:17:57;;;;;;;9.70;8.40;;;10.60;81.70;;;;;;10460935;28;20612;-66
2024/01/29 18:23:02;;;;;;;9.63;8.07;;;10.60;81.50;;;;;;10455371;28;20226;-66
2024/01/29 18:28:06;;;;;;;11.02;8.48;;;10.50;81.40;;;;;;10457556;28;20270;-66
2024/01/29 18:33:11;;;;;;;11.27;8.43;;;10.50;81.50;;;;;;10451947;28;20224;-66
2024/01/29 18:38:15;;;;;;;13.05;9.15;;;10.40;81.50;;;;;;10445955;28;20255;-66
2024/01/29 18:43:18;;;;;;;12.68;9.40;;;10.40;81.50;;;;;;10447094;28;20227;-65
2024/01/29 18:48:23;;;;;;;16.15;11.20;;;10.40;82.00;;;;;;10459445;28;20702;-65
2024/01/29 18:53:27;;;;;;;13.80;11.35;;;10.40;81.80;;;;;;10450344;28;20246;-65
2024/01/29 18:58:31;;;;;;;15.20;12.00;;;10.40;81.80;;;;;;10456317;28;20223;-65
2024/01/29 19:03:36;;;;;;;15.95;11.25;;;10.30;82.00;;;;;;10459631;28;20267;-61
2024/01/29 19:08:40;;;;;;;12.15;10.43;;;10.30;81.90;;;;;;10454945;28;20626;-62
2024/01/29 19:13:44;;;;;;;14.05;9.45;;;10.30;82.00;;;;;;10432347;28;20224;-64
2024/01/29 19:18:49;;;;;;;11.43;9.23;;;10.30;82.10;;;;;;10432157;28;20248;-63
2024/01/29 19:23:52;;;;;;;11.40;8.93;;;10.30;82.10;;;;;;10432080;28;20729;-62
2024/01/29 19:28:56;;;;;;;14.55;8.15;;;10.20;82.60;;;;;;10426840;28;20200;-62
2024/01/29 19:34:01;;;;;;;8.57;7.53;;;10.20;82.20;;;;;;10430646;28;20232;-62
2024/01/29 19:39:05;;;;;;;8.95;8.05;;;10.20;83.20;;;;;;10421672;28;20244;-64
2024/01/29 19:44:09;;;;;;;9.65;8.50;;;10.20;82.50;;;;;;10421917;28;20270;-62
2024/01/29 19:49:14;;;;;;;10.10;8.15;;;10.20;82.80;;;;;;10420065;28;20227;-62
2024/01/29 19:54:18;;;;;;;12.05;8.75;;;10.20;82.80;;;;;;10423355;28;20259;-61
2024/01/29 19:59:23;;;;;;;11.18;7.93;;;10.20;83.00;;;;;;10409017;28;20251;-61
2024/01/29 20:04:28;;;;;;;13.15;8.85;;;10.20;83.20;;;;;;10403488;28;20253;-64
2024/01/29 20:09:31;;;;;;;10.30;8.80;;;10.10;83.40;;;;;;10413614;28;20321;-63
2024/01/29 20:14:35;;;;;;;10.68;9.00;;;10.10;83.10;;;;;;10412231;28;20219;-62
2024/01/29 20:19:41;;;;;;;10.75;9.10;;;10.10;83.20;;;;;;10393279;28;20239;-62
2024/01/29 20:24:45;;;;;;;12.83;9.77;;;10.10;83.20;;;;;;10407220;28;20224;-62
2024/01/29 20:29:49;;;;;;;11.03;9.30;;;10.10;83.30;;;;;;10410152;28;20250;-60
2024/01/29 20:34:54;;;;;;;10.35;8.73;;;10.00;83.40;;;;;;10408150;28;20251;-61
2024/01/29 20:40:00;;;;;;;12.40;9.70;;;10.00;83.80;;;;;;10411129;28;20217;-62
2024/01/29 20:45:04;;;;;;;16.15;11.55;;;10.00;84.00;;;;;;10411656;28;20631;-60
2024/01/29 20:50:10;;;;;;;11.25;9.65;;;10.10;84.40;;;;;;10412041;28;20254;-63
2024/01/29 20:55:14;;;;;;;18.75;13.77;;;10.10;84.20;;;;;;10398531;28;20240;-63
2024/01/29 21:00:23;;;;;;;18.38;14.85;;;10.10;83.90;;;;;;10409916;28;20224;-66
2024/01/29 21:05:28;;;;;;;15.25;11.48;;;10.10;84.50;;;;;;10405871;28;20274;-62
2024/01/29 21:10:32;;;;;;;10.10;9.00;;;10.10;84.30;;;;;;10399440;28;20268;-59
2024/01/29 21:15:35;;;;;;;10.20;9.05;;;10.10;84.40;;;;;;10405256;28;20254;-59
2024/01/29 21:20:41;;;;;;;11.67;9.30;;;10.10;85.00;;;;;;10410626;28;20220;-58
2024/01/29 21:25:45;;;;;;;9.38;8.48;;;10.10;84.60;;;;;;10406230;28;20702;-60
2024/01/29 21:30:52;;;;;;;12.70;8.73;;;10.00;84.90;;;;;;10393758;28;20243;-59
2024/01/29 21:35:57;;;;;;;10.32;9.20;;;10.00;84.90;;;;;;10411888;28;20242;-61
2024/01/29 21:41:02;;;;;;;10.52;8.82;;;10.00;85.00;;;;;;10418936;28;20220;-63
2024/01/29 21:46:06;;;;;;;9.35;8.23;;;10.00;85.70;;;;;;10423513;28;20220;-61
2024/01/29 21:51:11;;;;;;;10.13;7.90;;;10.00;85.90;;;;;;10424775;28;20196;-62
2024/01/29 21:56:14;;;;;;;8.63;7.72;;;10.00;86.40;;;;;;10412179;28;20770;-65
2024/01/29 22:01:18;;;;;;;8.90;7.88;;;10.00;85.70;;;;;;10401576;28;20256;-67
2024/01/29 22:06:23;;;;;;;8.88;7.93;;;10.00;85.50;;;;;;10418738;28;20224;-64
2024/01/29 22:11:27;;;;;;;10.38;7.93;;;10.00;85.50;;;;;;10428715;28;20597;-64
2024/01/29 22:16:32;;;;;;;8.57;7.55;;;9.90;87.10;;;;;;10428986;28;20223;-63
2024/01/29 22:21:37;;;;;;;8.43;7.63;;;9.90;87.10;;;;;;10420028;28;20239;-61
2024/01/29 22:26:41;;;;;;;11.25;7.60;;;9.90;87.20;;;;;;10420394;28;20270;-66
2024/01/29 22:31:45;;;;;;;9.60;7.95;;;9.90;86.90;;;;;;10423441;28;20227;-65
2024/01/29 22:36:50;;;;;;;9.30;8.45;;;9.90;87.10;;;;;;10431494;28;20675;-62
2024/01/29 22:41:53;;;;;;;9.25;8.07;;;9.80;87.20;;;;;;10417087;28;20255;-65
2024/01/29 22:46:58;;;;;;;8.35;7.25;;;9.80;86.90;;;;;;10425830;28;20205;-60
2024/01/29 22:52:04;;;;;;;10.27;8.00;;;9.80;86.80;;;;;;10428633;28;20227;-60
2024/01/29 22:57:07;;;;;;;8.90;7.53;;;9.80;87.20;;;;;;10424046;28;20614;-59
2024/01/29 23:02:13;;;;;;;9.23;7.60;;;9.80;87.30;;;;;;10433658;28;20278;-59
2024/01/29 23:07:18;;;;;;;9.73;7.77;;;9.70;87.50;;;;;;10432769;28;20418;-59
2024/01/29 23:12:22;;;;;;;10.43;8.20;;;9.70;87.80;;;;;;10430385;28;20298;-60
2024/01/29 23:17:26;;;;;;;11.30;8.45;;;9.70;87.90;;;;;;10440318;28;20250;-64
2024/01/29 23:22:31;;;;;;;10.20;8.30;;;9.60;87.80;;;;;;10435411;28;20255;-64
2024/01/29 23:27:35;;;;;;;10.02;7.75;;;9.60;87.90;;;;;;10429750;28;20208;-64
2024/01/29 23:32:40;;;;;;;8.80;7.45;;;9.50;88.10;;;;;;10433295;28;20235;-64
2024/01/29 23:37:45;;;;;;;9.07;7.77;;;9.50;88.20;;;;;;10436687;28;20245;-64
2024/01/29 23:42:48;;;;;;;10.27;7.47;;;9.50;88.40;;;;;;10430796;28;20775;-64
2024/01/29 23:47:52;;;;;;;10.03;7.47;;;9.50;88.50;;;;;;10428204;28;20232;-64
2024/01/29 23:52:57;;;;;;;8.82;7.78;;;9.50;88.60;;;;;;10423480;28;20216;-63
2024/01/29 23:58:00;;;;;;;11.20;7.70;;;9.40;89.10;;;;;;10428540;28;20254;-61
